Time;durP1;ratioP1;P1;durP2;ratioP2;P2;SDS_P1;SDS_P2;PMS_P1;PMS_P2;Temp;Humidity;BMP_temperature;BMP_pressure;BME280_temperature;BME280_humidity;BME280_pressure;Samples;Min_cycle;Max_cycle;Signal;HPM_P1;HPM_P2
2022/11/11 00:00:42;;;;;;;12.88;2.70;;;;;;;10.95;100.00;155275.06;5018090;28;20042;-73
2022/11/11 00:03:27;;;;;;;10.38;2.72;;;;;;;10.97;100.00;155280.19;5004404;28;20037;-73
2022/11/11 00:06:13;;;;;;;13.30;3.83;;;;;;;10.88;100.00;155259.63;4991801;28;20050;-73
2022/11/11 00:08:57;;;;;;;13.45;3.00;;;;;;;10.87;100.00;155257.09;4984602;28;20096;-73
2022/11/11 00:11:41;;;;;;;15.00;3.35;;;;;;;10.85;100.00;155251.97;5007350;28;20033;-72
2022/11/11 00:14:25;;;;;;;10.43;2.88;;;;;;;10.94;100.00;155272.47;5006497;28;20034;-73
2022/11/11 00:26:27;;;;;;;10.02;3.30;;;;;;;10.90;100.00;155263.50;5001780;28;20031;-73
2022/11/11 00:29:12;;;;;;;12.25;3.25;;;;;;;10.91;100.00;155266.06;5006273;28;20034;-73
2022/11/11 00:38:07;;;;;;;10.25;3.30;;;;;;;10.85;100.00;155251.97;5006837;28;20034;-73
2022/11/11 00:40:52;;;;;;;12.95;3.80;;;;;;;10.87;100.00;155257.09;5003671;28;20128;-72
2022/11/11 00:43:36;;;;;;;12.32;3.55;;;;;;;10.80;100.00;155239.13;5003036;28;20046;-73
2022/11/11 00:52:27;;;;;;;10.93;4.47;;;;;;;10.87;100.00;155257.09;5005648;28;20196;-73
2022/11/11 00:55:12;;;;;;;11.98;4.20;;;;;;;10.75;100.00;155225.00;5004168;28;20479;-72
2022/11/11 00:57:55;;;;;;;13.60;4.13;;;;;;;10.81;100.00;155241.69;5004542;28;20475;-72
2022/11/11 01:00:40;;;;;;;12.82;4.40;;;;;;;10.89;100.00;155262.22;4998361;28;20033;-73
2022/11/11 01:03:24;;;;;;;10.98;3.97;;;;;;;10.79;100.00;155235.25;4990413;28;20030;-72
2022/11/11 01:06:10;;;;;;;12.43;4.78;;;;;;;10.82;100.00;155244.25;5004000;28;20030;-74
2022/11/11 01:08:55;;;;;;;10.50;4.07;;;;;;;10.82;100.00;155242.97;5004304;28;20511;-74
2022/11/11 01:11:39;;;;;;;11.48;4.65;;;;;;;10.85;100.00;155250.66;5003563;28;20037;-73
2022/11/11 01:14:23;;;;;;;16.98;4.20;;;;;;;10.84;100.00;155248.09;4999485;28;20453;-73
2022/11/11 01:17:08;;;;;;;10.20;3.90;;;;;;;10.93;100.00;155269.94;5014852;28;20045;-72
2022/11/11 01:19:52;;;;;;;10.85;3.75;;;;;;;10.92;100.00;155268.63;4986932;28;20034;-71
2022/11/11 01:22:37;;;;;;;13.27;4.05;;;;;;;10.84;100.00;155249.38;5005029;28;20041;-72
2022/11/11 01:25:21;;;;;;;13.82;4.10;;;;;;;10.91;100.00;155267.34;5003928;28;20068;-72
2022/11/11 01:28:06;;;;;;;9.98;3.47;;;;;;;10.82;100.00;155242.97;5004849;28;20037;-74
2022/11/11 01:30:50;;;;;;;18.83;4.22;;;;;;;10.86;100.00;155253.22;5007430;28;20030;-74
2022/11/11 01:33:35;;;;;;;14.68;3.97;;;;;;;10.81;100.00;155240.38;4998890;28;20045;-74
2022/11/11 01:36:23;;;;;;;14.82;4.07;;;;;;;10.82;100.00;155244.25;5003868;28;20069;-73
2022/11/11 01:39:08;;;;;;;11.77;4.50;;;;;;;10.81;100.00;155241.69;5012991;28;20038;-73
2022/11/11 01:41:52;;;;;;;14.32;3.75;;;;;;;10.82;100.00;155242.97;5006023;28;20025;-74
2022/11/11 01:44:46;;;;;;;15.00;4.10;;;;;;;10.83;100.00;155245.50;5003160;28;20741;-73
2022/11/11 01:49:17;;;;;;;11.77;4.10;;;;;;;10.76;100.00;155228.88;5003339;28;20519;-74
2022/11/11 01:50:35;;;;;;;9.43;3.80;;;;;;;10.81;100.00;155241.69;4998260;28;20372;-74
2022/11/11 01:53:19;;;;;;;14.02;4.32;;;;;;;10.86;100.00;155254.50;5004378;28;20084;-73
2022/11/11 01:56:04;;;;;;;15.30;4.78;;;;;;;10.88;100.00;155258.34;4991237;28;20372;-74
2022/11/11 01:58:54;;;;;;;12.02;4.57;;;;;;;10.79;100.00;155236.53;5003638;28;20114;-73
2022/11/11 02:01:39;;;;;;;13.15;4.60;;;;;;;10.82;100.00;155242.97;4984152;28;20494;-73
2022/11/11 02:07:28;;;;;;;12.35;5.30;;;;;;;10.73;100.00;155221.16;5005100;28;20038;-73
2022/11/11 02:10:12;;;;;;;10.23;4.97;;;;;;;10.80;100.00;155239.13;5005444;28;20034;-74
2022/11/11 02:16:00;;;;;;;13.68;4.93;;;;;;;10.72;100.00;155218.59;5004659;28;20461;-74
2022/11/11 02:18:45;;;;;;;13.85;5.03;;;;;;;10.70;100.00;155213.47;4988468;28;20080;-73
2022/11/11 02:21:41;;;;;;;13.88;4.90;;;;;;;10.67;100.00;155205.75;5017168;28;20034;-72
2022/11/11 02:24:27;;;;;;;14.50;4.97;;;;;;;10.67;100.00;155207.03;5002653;28;20134;-72
2022/11/11 02:27:14;;;;;;;12.38;4.57;;;;;;;10.69;100.00;155210.88;5005708;28;20045;-72
2022/11/11 02:30:00;;;;;;;12.75;4.80;;;;;;;10.68;100.00;155209.63;5002363;28;20030;-73
2022/11/11 02:32:48;;;;;;;16.15;4.90;;;;;;;10.64;100.00;155198.03;5004098;28;20030;-75
2022/11/11 02:35:36;;;;;;;13.73;4.50;;;;;;;10.67;100.00;155205.75;4997419;28;20045;-72
2022/11/11 02:38:21;;;;;;;9.82;4.85;;;;;;;10.60;100.00;155187.78;5004390;28;20718;-75
2022/11/11 02:44:09;;;;;;;;;;;;;;;10.49;100.00;155162.16;5002284;28;20100;-75
2022/11/11 02:46:53;;;;;;;16.48;4.65;;;;;;;10.53;100.00;155171.13;5004175;28;20398;-75
2022/11/11 02:49:37;;;;;;;16.45;4.38;;;;;;;10.53;100.00;155171.13;5000795;28;20144;-75
2022/11/11 02:52:21;;;;;;;13.73;4.32;;;;;;;10.48;100.00;155159.56;5002744;28;20065;-75
2022/11/11 02:55:06;;;;;;;11.38;4.43;;;;;;;10.51;100.00;155167.28;4999921;28;20045;-75
2022/11/11 02:57:51;;;;;;;11.73;4.65;;;;;;;10.52;100.00;155168.56;5007986;28;20042;-75
2022/11/11 03:00:35;;;;;;;17.70;4.88;;;;;;;10.44;100.00;155149.31;5007237;28;20083;-75
2022/11/11 03:03:19;;;;;;;17.38;5.43;;;;;;;10.50;100.00;155163.44;5005806;28;20030;-75
2022/11/11 03:06:04;;;;;;;13.75;5.05;;;;;;;10.48;100.00;155159.56;5002104;28;20574;-75
2022/11/11 03:08:48;;;;;;;10.25;4.57;;;;;;;10.50;100.00;155164.69;5007696;28;20503;-75
2022/11/11 03:11:33;;;;;;;13.45;5.35;;;;;;;10.46;100.00;155154.44;5003475;28;20056;-74
2022/11/11 03:14:18;;;;;;;10.32;4.10;;;;;;;10.46;100.00;155153.16;5007125;28;20034;-75
2022/11/11 03:23:15;;;;;;;11.50;4.30;;;;;;;10.48;100.00;155159.56;5006614;28;20033;-74
2022/11/11 03:25:59;;;;;;;14.90;4.80;;;;;;;10.46;100.00;155154.44;5006670;28;20040;-74
2022/11/11 03:28:43;;;;;;;12.43;4.70;;;;;;;10.41;100.00;155141.59;4993330;28;20475;-75
2022/11/11 03:31:27;;;;;;;12.80;4.20;;;;;;;10.49;100.00;155160.84;5006803;28;20084;-73
2022/11/11 03:34:17;;;;;;;12.60;4.68;;;;;;;10.48;100.00;155158.31;4994238;28;20375;-73
2022/11/11 03:40:08;;;;;;;14.52;4.80;;;;;;;10.40;100.00;155139.06;5008001;28;20038;-74
2022/11/11 03:42:53;;;;;;;14.35;4.70;;;;;;;10.46;100.00;155153.16;4994734;28;20030;-74
2022/11/11 03:45:37;;;;;;;12.50;4.65;;;;;;;10.45;100.00;155150.59;5002000;28;20113;-74
2022/11/11 03:48:23;;;;;;;10.27;4.75;;;;;;;10.39;100.00;155136.47;4993357;28;20034;-74
2022/11/11 03:51:07;;;;;;;12.48;4.57;;;;;;;10.46;100.00;155153.16;5022838;28;20049;-73
2022/11/11 03:53:51;;;;;;;11.57;4.90;;;;;;;10.31;100.00;155115.97;5009570;28;20029;-74
2022/11/11 03:56:36;;;;;;;20.55;5.25;;;;;;;10.38;100.00;155132.63;4979435;28;20125;-73
2022/11/11 03:59:20;;;;;;;16.02;5.40;;;;;;;10.44;100.00;155149.31;5006585;28;20779;-75
2022/11/11 04:11:25;;;;;;;11.68;5.20;;;;;;;10.31;100.00;155117.22;5008324;28;20445;-73
2022/11/11 04:17:16;;;;;;;14.73;5.65;;;;;;;10.23;100.00;155096.69;5003197;28;20048;-74
2022/11/11 04:23:03;;;;;;;;;;;;;;;10.19;100.00;155086.44;5007818;28;20121;-73
2022/11/11 04:25:47;;;;;;;12.27;5.70;;;;;;;10.18;100.00;155082.56;5006232;28;19921;-74
2022/11/11 04:31:35;;;;;;;;;;;;;;;10.23;100.00;155096.69;5007294;28;20125;-73
2022/11/11 04:34:19;;;;;;;14.23;5.78;;;;;;;10.17;100.00;155081.31;5001910;28;19917;-73
2022/11/11 04:37:03;;;;;;;15.77;6.30;;;;;;;10.08;100.00;155059.47;5003387;28;20040;-73
2022/11/11 04:42:52;;;;;;;16.58;6.57;;;;;;;10.07;100.00;155055.63;5005069;28;20054;-73
2022/11/11 04:45:37;;;;;;;21.63;7.18;;;;;;;9.98;100.00;155032.53;5003223;28;20041;-74
2022/11/11 04:48:22;;;;;;;14.90;5.90;;;;;;;10.03;100.00;155046.63;5006146;28;20037;-74
2022/11/11 04:51:06;;;;;;;19.55;6.43;;;;;;;10.06;100.00;155054.34;4998482;28;20488;-74
2022/11/11 04:53:50;;;;;;;16.73;7.32;;;;;;;10.14;100.00;155074.84;5002879;28;20116;-74
2022/11/11 04:56:48;;;;;;;14.43;6.97;;;;;;;10.12;100.00;155068.47;5003199;28;20140;-73
2022/11/11 04:59:32;;;;;;;17.30;7.47;;;;;;;10.08;100.00;155059.47;4999483;28;20029;-75
2022/11/11 05:05:20;;;;;;;17.58;6.60;;;;;;;10.02;100.00;155042.78;5003139;28;20045;-75
2022/11/11 05:11:08;;;;;;;16.35;6.93;;;;;;;9.99;100.00;155035.13;5002482;28;20037;-73
2022/11/11 05:23:04;;;;;;;14.18;7.90;;;;;;;9.78;100.00;154982.56;5001508;28;20108;-72
2022/11/11 05:25:48;;;;;;;20.42;8.27;;;;;;;9.82;100.00;154992.81;5005093;28;20220;-73
2022/11/11 05:28:32;;;;;;;14.13;7.82;;;;;;;9.80;100.00;154988.94;4984531;28;20038;-73
2022/11/11 05:31:16;;;;;;;12.65;7.10;;;;;;;9.79;100.00;154986.34;5004965;28;20073;-72
2022/11/11 05:34:00;;;;;;;16.50;6.85;;;;;;;9.76;100.00;154978.69;5003832;28;20037;-73
2022/11/11 05:36:44;;;;;;;11.20;6.82;;;;;;;9.74;100.00;154973.56;5014270;28;20038;-74
2022/11/11 05:39:29;;;;;;;13.98;7.22;;;;;;;9.66;100.00;154953.03;5012549;28;20119;-73
2022/11/11 05:42:13;;;;;;;18.48;7.82;;;;;;;9.64;100.00;154947.91;5018120;28;20497;-74
2022/11/11 05:44:58;;;;;;;19.00;7.65;;;;;;;9.57;100.00;154931.25;5004602;28;20036;-74
2022/11/11 05:47:42;;;;;;;16.15;8.00;;;;;;;9.58;100.00;154932.53;5000010;28;20026;-74
2022/11/11 05:50:26;;;;;;;17.13;8.18;;;;;;;9.60;100.00;154938.91;5003665;28;20030;-74
2022/11/11 05:53:10;;;;;;;14.63;8.13;;;;;;;9.59;100.00;154936.38;5002337;28;20543;-73
2022/11/11 05:55:54;;;;;;;18.08;8.20;;;;;;;9.62;100.00;154942.78;5005785;28;20030;-74
2022/11/11 05:58:38;;;;;;;20.00;8.88;;;;;;;9.62;100.00;154944.03;5003464;28;20076;-74
2022/11/11 06:01:23;;;;;;;18.45;8.43;;;;;;;9.63;100.00;154945.38;5015083;28;20057;-73
2022/11/11 06:04:07;;;;;;;19.58;9.10;;;;;;;9.66;100.00;154953.03;5003874;28;20065;-74
2022/11/11 06:06:51;;;;;;;18.25;8.68;;;;;;;9.65;100.00;154950.47;4990455;28;20038;-74
2022/11/11 06:09:36;;;;;;;15.98;8.60;;;;;;;9.62;100.00;154942.78;5001920;28;20054;-74
2022/11/11 06:12:20;;;;;;;21.83;9.02;;;;;;;9.66;100.00;154953.03;4998699;28;20067;-75
2022/11/11 06:15:04;;;;;;;19.17;9.80;;;;;;;9.68;100.00;154959.47;4998301;28;20074;-75
2022/11/11 06:17:51;;;;;;;17.75;9.02;;;;;;;9.69;100.00;154960.75;4983750;28;20693;-74
2022/11/11 06:20:35;;;;;;;18.30;9.52;;;;;;;9.61;100.00;154941.50;4996236;28;20042;-73
2022/11/11 06:23:20;;;;;;;20.02;9.85;;;;;;;9.65;100.00;154951.75;5001260;28;20042;-73
2022/11/11 06:26:17;;;;;;;23.33;10.48;;;;;;;9.54;100.00;154923.56;4996287;28;20121;-74
2022/11/11 06:29:03;;;;;;;22.15;9.77;;;;;;;9.61;100.00;154941.50;5002116;28;20407;-74
2022/11/11 06:31:47;;;;;;;21.67;9.77;;;;;;;9.63;100.00;154946.63;4999224;28;20088;-74
2022/11/11 06:34:31;;;;;;;20.42;9.82;;;;;;;9.61;100.00;154940.25;5007391;28;20851;-74
2022/11/11 06:37:15;;;;;;;19.63;10.48;;;;;;;9.63;100.00;154945.38;5016249;28;20030;-74
2022/11/11 06:39:59;;;;;;;21.13;10.50;;;;;;;9.65;100.00;154950.47;4994574;28;20042;-73
2022/11/11 06:42:43;;;;;;;25.33;11.25;;;;;;;9.65;100.00;154950.47;5018022;28;20495;-74
2022/11/11 06:45:30;;;;;;;24.33;11.00;;;;;;;9.63;100.00;154946.63;5005590;28;20038;-74
2022/11/11 06:48:14;;;;;;;18.33;11.10;;;;;;;9.59;100.00;154936.38;5017984;28;20049;-74
2022/11/11 06:51:04;;;;;;;25.95;12.70;;;;;;;9.58;100.00;154933.78;5005868;28;20153;-72
2022/11/11 06:53:49;;;;;;;21.60;11.38;;;;;;;9.64;100.00;154949.16;5003866;28;20034;-72
2022/11/11 06:56:33;;;;;;;23.65;11.80;;;;;;;9.66;100.00;154953.03;5007531;28;20080;-72
2022/11/11 06:59:17;;;;;;;23.17;11.98;;;;;;;9.71;100.00;154967.13;5005549;28;20041;-73
2022/11/11 07:02:04;;;;;;;23.08;11.75;;;;;;;9.74;100.00;154974.84;5002732;28;20026;-73
2022/11/11 07:04:48;;;;;;;27.80;12.23;;;;;;;9.69;100.00;154962.00;4985980;28;20026;-73
2022/11/11 07:07:33;;;;;;;25.75;11.77;;;;;;;9.66;100.00;154954.34;5008962;28;20084;-73
2022/11/11 07:10:17;;;;;;;23.70;12.02;;;;;;;9.61;100.00;154941.50;4995372;28;20084;-73
2022/11/11 07:13:01;;;;;;;32.25;14.10;;;;;;;9.70;100.00;154963.28;4999770;28;20038;-73
2022/11/11 07:15:46;;;;;;;27.88;13.00;;;;;;;9.60;100.00;154938.91;5013785;28;20137;-73
2022/11/11 07:18:31;;;;;;;22.48;12.30;;;;;;;9.62;100.00;154944.03;5008293;28;20065;-72
2022/11/11 07:21:15;;;;;;;22.17;12.70;;;;;;;9.66;100.00;154954.34;5005107;28;20034;-74
2022/11/11 07:23:59;;;;;;;28.05;13.20;;;;;;;9.68;100.00;154959.47;5008646;28;20030;-74
2022/11/11 07:26:43;;;;;;;24.60;13.07;;;;;;;9.64;100.00;154947.91;5008341;28;20476;-74
2022/11/11 07:29:28;;;;;;;27.15;14.27;;;;;;;9.64;100.00;154949.16;4988501;28;20038;-74
2022/11/11 07:32:12;;;;;;;25.35;13.35;;;;;;;9.74;100.00;154973.56;5008135;28;20038;-74
2022/11/11 07:34:56;;;;;;;26.10;14.48;;;;;;;9.66;100.00;154954.34;4994542;28;20128;-74
2022/11/11 07:37:41;;;;;;;27.58;14.68;;;;;;;9.68;100.00;154959.47;5006752;28;20034;-74
2022/11/11 07:40:26;;;;;;;22.23;13.60;;;;;;;9.68;100.00;154959.47;5009749;28;20030;-75
2022/11/11 07:43:10;;;;;;;31.83;13.63;;;;;;;9.68;100.00;154958.16;5008029;28;20034;-74
2022/11/11 07:45:54;;;;;;;26.55;14.52;;;;;;;9.77;100.00;154981.25;5007952;28;20033;-75
2022/11/11 07:48:39;;;;;;;31.42;15.15;;;;;;;9.70;100.00;154964.59;5007941;28;20030;-74
2022/11/11 07:51:23;;;;;;;25.17;14.85;;;;;;;9.67;100.00;154956.88;5005142;28;20120;-75
2022/11/11 07:54:08;;;;;;;26.10;15.57;;;;;;;9.65;100.00;154951.75;5006483;28;20649;-75
2022/11/11 07:56:52;;;;;;;28.55;15.05;;;;;;;9.73;100.00;154970.97;5006735;28;20030;-75
2022/11/11 07:59:36;;;;;;;25.80;15.35;;;;;;;9.79;100.00;154986.34;4993977;28;20034;-75
2022/11/11 08:02:21;;;;;;;24.35;14.90;;;;;;;9.76;100.00;154978.69;5007954;28;20034;-73
2022/11/11 08:05:06;;;;;;;33.50;15.60;;;;;;;9.75;100.00;154976.09;5000515;28;20092;-73
2022/11/11 08:07:50;;;;;;;30.40;15.88;;;;;;;9.82;100.00;154994.06;5009045;28;20050;-73
2022/11/11 08:10:35;;;;;;;27.83;16.38;;;;;;;9.79;100.00;154985.09;5004642;28;20037;-73
2022/11/11 08:16:25;;;;;;;31.88;15.55;;;;;;;9.88;100.00;155008.19;5001560;28;20164;-73
2022/11/11 08:19:13;;;;;;;28.30;14.90;;;;;;;9.83;100.00;154996.66;4999705;28;20038;-72
2022/11/11 08:21:57;;;;;;;31.52;15.55;;;;;;;9.89;100.00;155012.03;5007404;28;20563;-73
2022/11/11 08:24:42;;;;;;;29.40;15.88;;;;;;;9.85;100.00;155000.47;5006226;28;20112;-72
2022/11/11 08:27:26;;;;;;;32.22;15.02;;;;;;;9.90;100.00;155013.31;4991997;28;20030;-72
2022/11/11 08:30:11;;;;;;;30.00;15.38;;;;;;;9.88;100.00;155009.44;5006747;28;20050;-73
2022/11/11 08:33:01;;;;;;;31.80;15.50;;;;;;;9.96;100.00;155027.41;5007610;28;20029;-73
2022/11/11 08:35:46;;;;;;;24.70;14.40;;;;;;;10.01;100.00;155041.50;5004103;28;20034;-74
2022/11/11 08:38:30;;;;;;;35.03;15.15;;;;;;;10.08;100.00;155059.47;5009990;28;20120;-73
2022/11/11 08:41:15;;;;;;;25.10;15.45;;;;;;;10.16;100.00;155077.44;5005770;28;20120;-73
2022/11/11 08:44:00;;;;;;;22.75;14.02;;;;;;;10.09;100.00;155060.75;5006326;28;20495;-74
2022/11/11 08:46:44;;;;;;;23.67;14.48;;;;;;;10.09;100.00;155062.03;5002558;28;20040;-73
2022/11/11 08:49:28;;;;;;;19.58;13.05;;;;;;;10.21;100.00;155090.22;5002246;28;20030;-74
2022/11/11 08:52:12;;;;;;;30.17;14.43;;;;;;;10.15;100.00;155076.13;5001432;28;20044;-74
2022/11/11 08:54:58;;;;;;;34.50;15.10;;;;;;;10.21;100.00;155091.56;5020555;28;20029;-74
2022/11/11 08:57:42;;;;;;;27.20;15.02;;;;;;;10.14;100.00;155073.59;5006914;28;20085;-73
2022/11/11 09:00:27;;;;;;;30.23;14.75;;;;;;;10.28;100.00;155108.19;5005426;28;20519;-73
2022/11/11 09:03:11;;;;;;;26.58;14.05;;;;;;;10.24;100.00;155097.94;4990674;28;20033;-73
2022/11/11 09:05:56;;;;;;;27.00;14.88;;;;;;;10.23;100.00;155095.41;4999837;28;20049;-74
2022/11/11 09:08:41;;;;;;;27.20;14.88;;;;;;;10.29;100.00;155112.06;5005325;28;20045;-72
2022/11/11 09:11:27;;;;;;;27.48;15.05;;;;;;;10.30;100.00;155114.69;5004564;28;20125;-72
2022/11/11 09:14:11;;;;;;;28.40;15.02;;;;;;;10.26;100.00;155103.06;5004462;28;20137;-73
2022/11/11 09:16:55;;;;;;;28.17;15.23;;;;;;;10.27;100.00;155106.94;4992461;28;20184;-73
2022/11/11 09:19:39;;;;;;;29.23;15.05;;;;;;;10.37;100.00;155130.06;5000754;28;20033;-72
2022/11/11 09:22:23;;;;;;;24.90;14.20;;;;;;;10.36;100.00;155127.50;5003643;28;20030;-73
2022/11/11 09:25:08;;;;;;;24.23;14.75;;;;;;;10.33;100.00;155122.38;5002240;28;20033;-73
2022/11/11 09:27:57;;;;;;;23.63;14.18;;;;;;;10.37;100.00;155131.34;5005569;28;20041;-72
2022/11/11 09:30:41;;;;;;;27.05;14.30;;;;;;;10.31;100.00;155117.22;4986485;28;20034;-73
2022/11/11 09:33:25;;;;;;;25.90;14.27;;;;;;;10.47;100.00;155155.72;5003095;28;20073;-72
2022/11/11 09:36:10;;;;;;;27.88;14.90;;;;;;;10.45;100.00;155151.91;4999207;28;20653;-75
2022/11/11 09:38:54;;;;;;;24.15;13.50;;;;;;;10.48;100.00;155158.31;5020041;28;20037;-73
2022/11/11 09:42:03;;;;;;;24.95;13.75;;;;;;;10.47;100.00;155155.72;5000682;28;20034;-72
2022/11/11 09:45:05;;;;;;;24.05;13.82;;;;;;;10.47;100.00;155157.03;4994426;28;20108;-73
2022/11/11 09:48:04;;;;;;;26.27;15.15;;;;;;;10.39;100.00;155136.47;5001407;28;20033;-73
2022/11/11 09:50:53;;;;;;;30.38;14.98;;;;;;;10.39;100.00;155136.47;5002544;28;20033;-73
2022/11/11 09:53:43;;;;;;;21.80;13.88;;;;;;;10.37;100.00;155130.06;4986152;28;20125;-73
2022/11/11 09:56:28;;;;;;;20.88;13.73;;;;;;;10.42;100.00;155144.19;5005934;28;20395;-73
2022/11/11 09:59:20;;;;;;;25.55;15.10;;;;;;;10.37;100.00;155131.34;5005866;28;20030;-74
2022/11/11 10:02:17;;;;;;;28.25;14.13;;;;;;;10.37;100.00;155130.06;5004247;28;20048;-73
2022/11/11 10:05:13;;;;;;;27.33;13.77;;;;;;;10.42;100.00;155144.19;5004531;28;20095;-73
2022/11/11 10:08:20;;;;;;;22.67;13.77;;;;;;;10.49;100.00;155162.16;5002646;28;20046;-73
2022/11/11 10:11:15;;;;;;;27.65;14.43;;;;;;;10.45;100.00;155151.91;4987171;28;20389;-73
2022/11/11 10:13:59;;;;;;;23.50;13.90;;;;;;;10.56;100.00;155177.53;5004177;28;20061;-73
2022/11/11 10:16:53;;;;;;;25.67;13.55;;;;;;;10.61;100.00;155190.38;5007357;28;20026;-73
2022/11/11 10:20:12;;;;;;;21.17;13.82;;;;;;;10.59;100.00;155185.25;5002484;28;20065;-74
2022/11/11 10:23:04;;;;;;;23.63;13.95;;;;;;;10.59;100.00;155186.53;4999444;28;20058;-72
2022/11/11 10:25:55;;;;;;;25.13;14.05;;;;;;;10.66;100.00;155204.50;5000065;28;20037;-72
2022/11/11 10:28:42;;;;;;;22.65;13.60;;;;;;;10.66;100.00;155203.19;4999263;28;20038;-72
2022/11/11 10:31:27;;;;;;;25.35;14.55;;;;;;;10.64;100.00;155198.03;5002161;28;20498;-73
2022/11/11 10:34:15;;;;;;;24.23;14.32;;;;;;;10.68;100.00;155209.63;5002770;28;20046;-72
2022/11/11 10:37:00;;;;;;;24.92;13.55;;;;;;;10.73;100.00;155219.88;5005385;28;20034;-72
2022/11/11 10:39:51;;;;;;;26.00;15.13;;;;;;;10.68;100.00;155208.31;5004307;28;20447;-73
2022/11/11 10:42:35;;;;;;;23.52;14.05;;;;;;;10.64;100.00;155199.38;5004534;28;20061;-73
2022/11/11 10:45:30;;;;;;;21.58;13.85;;;;;;;10.66;100.00;155204.50;4988989;28;20044;-73
2022/11/11 10:48:22;;;;;;;21.88;14.13;;;;;;;10.68;100.00;155208.31;4991031;28;20499;-73
2022/11/11 10:51:06;;;;;;;28.92;15.20;;;;;;;10.65;100.00;155201.91;5011447;28;20404;-73
2022/11/11 10:53:56;;;;;;;20.33;14.68;;;;;;;10.65;100.00;155201.91;5003971;28;20136;-73
2022/11/11 10:57:14;;;;;;;25.02;14.98;;;;;;;10.61;100.00;155191.66;4999730;28;20030;-73
2022/11/11 11:00:01;;;;;;;22.35;14.63;;;;;;;10.57;100.00;155181.41;5004325;28;20041;-73
2022/11/11 11:03:03;;;;;;;24.48;15.05;;;;;;;10.57;100.00;155181.41;5004933;28;20042;-73
2022/11/11 11:05:54;;;;;;;24.80;15.80;;;;;;;10.58;100.00;155183.94;4999769;28;20042;-73
2022/11/11 11:08:50;;;;;;;25.25;15.10;;;;;;;10.67;100.00;155205.75;5004097;28;20395;-73
2022/11/11 11:11:53;;;;;;;27.60;15.35;;;;;;;10.58;100.00;155182.66;5004886;28;20056;-73
2022/11/11 11:14:42;;;;;;;24.73;15.25;;;;;;;10.64;100.00;155199.38;5001226;28;20507;-73
2022/11/11 11:17:55;;;;;;;23.42;15.38;;;;;;;10.67;100.00;155207.03;5003221;28;20840;-73
2022/11/11 11:20:55;;;;;;;24.13;15.20;;;;;;;10.61;100.00;155191.66;5009225;28;20033;-72
2022/11/11 11:23:43;;;;;;;25.42;15.55;;;;;;;10.62;100.00;155192.91;5007434;28;20065;-72
2022/11/11 11:26:43;;;;;;;25.35;14.85;;;;;;;10.56;100.00;155177.53;5008101;28;20041;-73
2022/11/11 11:29:32;;;;;;;22.52;15.45;;;;;;;10.51;100.00;155166.00;5003350;28;20038;-73
2022/11/11 11:32:31;;;;;;;25.50;15.07;;;;;;;10.48;100.00;155158.31;5006104;28;20500;-73
2022/11/11 11:35:39;;;;;;;28.67;15.98;;;;;;;10.48;100.00;155159.56;5002521;28;20078;-73
2022/11/11 11:38:43;;;;;;;27.77;15.55;;;;;;;10.53;100.00;155171.13;5007546;28;20080;-74
2022/11/11 11:41:42;;;;;;;23.00;15.25;;;;;;;10.50;100.00;155163.44;5008406;28;20112;-72
2022/11/11 11:44:34;;;;;;;31.05;15.73;;;;;;;10.54;100.00;155173.69;4990056;28;20034;-74
2022/11/11 11:47:42;;;;;;;24.48;14.55;;;;;;;10.62;100.00;155192.91;5004097;28;20033;-73
2022/11/11 11:50:41;;;;;;;25.20;15.00;;;;;;;10.63;100.00;155195.50;4990539;28;20038;-72
2022/11/11 11:53:41;;;;;;;22.20;14.50;;;;;;;10.61;100.00;155190.38;5007718;28;20368;-73
2022/11/11 11:56:34;;;;;;;24.45;15.30;;;;;;;10.58;100.00;155182.66;4992885;28;20483;-74
2022/11/11 11:59:31;;;;;;;23.17;15.13;;;;;;;10.65;100.00;155200.63;4997086;28;20053;-74
2022/11/11 12:02:44;;;;;;;24.67;15.15;;;;;;;10.58;100.00;155183.94;5008525;28;20112;-72
2022/11/11 12:05:39;;;;;;;24.30;15.27;;;;;;;10.63;100.00;155195.50;5004058;28;20050;-73
2022/11/11 12:08:50;;;;;;;27.83;15.07;;;;;;;10.54;100.00;155173.69;5007450;28;20033;-73
2022/11/11 12:11:53;;;;;;;23.00;14.25;;;;;;;10.58;100.00;155182.66;5001960;28;20041;-73
2022/11/11 12:14:54;;;;;;;23.00;14.63;;;;;;;10.54;100.00;155172.41;5002547;28;20144;-73
2022/11/11 12:17:53;;;;;;;20.40;13.82;;;;;;;10.58;100.00;155183.94;5018179;28;20044;-73
2022/11/11 12:20:54;;;;;;;19.10;13.32;;;;;;;10.59;100.00;155186.53;4984004;28;20038;-74
2022/11/11 12:23:56;;;;;;;19.25;12.90;;;;;;;10.52;100.00;155169.81;4981706;28;20053;-73
2022/11/11 12:26:46;;;;;;;19.63;12.48;;;;;;;10.62;100.00;155194.19;5000765;28;20035;-73
2022/11/11 12:29:49;;;;;;;18.50;12.88;;;;;;;10.64;100.00;155199.38;4993408;28;20084;-73
2022/11/11 12:32:48;;;;;;;15.50;11.90;;;;;;;10.65;100.00;155201.91;5009279;28;20526;-73
2022/11/11 12:36:02;;;;;;;17.45;11.60;;;;;;;10.75;100.00;155225.00;5005722;28;20066;-74
2022/11/11 12:39:00;;;;;;;14.55;10.25;;;;;;;10.71;100.00;155217.28;5025952;28;20528;-71
2022/11/11 12:41:59;;;;;;;14.15;10.65;;;;;;;10.73;100.00;155219.88;5009097;28;20033;-73
2022/11/11 12:44:52;;;;;;;17.10;10.75;;;;;;;10.69;100.00;155212.16;5006683;28;20042;-73
2022/11/11 12:47:55;;;;;;;17.02;9.88;;;;;;;10.76;100.00;155227.59;5003038;28;20038;-73
2022/11/11 12:50:47;;;;;;;14.80;9.90;;;;;;;10.79;100.00;155236.53;5007538;28;20029;-74
2022/11/11 12:53:51;;;;;;;14.07;9.67;;;;;;;10.76;100.00;155227.59;4996834;28;20030;-73
2022/11/11 12:56:41;;;;;;;13.93;10.32;;;;;;;10.73;100.00;155221.16;5004692;28;20271;-73
2022/11/11 12:59:55;;;;;;;14.57;9.88;;;;;;;10.76;100.00;155228.88;5014308;28;20033;-73
2022/11/11 13:03:11;;;;;;;15.35;9.65;;;;;;;10.71;100.00;155217.28;5005793;28;20451;-73
2022/11/11 13:06:30;;;;;;;16.60;9.85;;;;;;;10.73;100.00;155221.16;5005525;28;20116;-73
2022/11/11 13:09:53;;;;;;;13.68;9.48;;;;;;;10.67;100.00;155207.03;4993144;28;20034;-72
2022/11/11 13:12:49;;;;;;;14.85;9.68;;;;;;;10.81;100.00;155241.69;5009168;28;20038;-73
2022/11/11 13:15:33;;;;;;;16.50;9.80;;;;;;;10.76;100.00;155227.59;5009205;28;20061;-73
2022/11/11 13:18:25;;;;;;;14.80;9.80;;;;;;;10.76;100.00;155227.59;5003962;28;20054;-73
2022/11/11 13:21:15;;;;;;;14.90;9.82;;;;;;;10.80;100.00;155237.84;5008313;28;20095;-73
2022/11/11 13:23:59;;;;;;;17.13;9.80;;;;;;;10.74;100.00;155222.41;4989050;28;20034;-73
2022/11/11 13:26:51;;;;;;;18.38;10.40;;;;;;;10.65;100.00;155201.91;4988139;28;20094;-74
2022/11/11 13:29:58;;;;;;;16.83;10.05;;;;;;;10.55;100.00;155176.28;5007146;28;20034;-73
2022/11/11 13:32:58;;;;;;;14.35;9.88;;;;;;;10.66;100.00;155204.50;4989793;28;20621;-75
2022/11/11 13:35:49;;;;;;;15.93;10.82;;;;;;;10.56;100.00;155178.81;5006967;28;20034;-73
2022/11/11 13:38:38;;;;;;;15.27;10.65;;;;;;;10.61;100.00;155190.38;5010969;28;20029;-73
2022/11/11 13:41:31;;;;;;;15.02;10.70;;;;;;;10.59;100.00;155185.25;5006343;28;20033;-75
2022/11/11 13:44:31;;;;;;;16.83;10.63;;;;;;;10.56;100.00;155177.53;5006145;28;20037;-73
2022/11/11 13:47:24;;;;;;;19.63;11.63;;;;;;;10.57;100.00;155180.06;4992391;28;20041;-73
2022/11/11 13:50:21;;;;;;;18.60;11.63;;;;;;;10.70;100.00;155214.75;4992237;28;20092;-74
2022/11/11 13:53:22;;;;;;;19.77;12.00;;;;;;;10.75;100.00;155225.00;4991981;28;20116;-74
2022/11/11 13:56:10;;;;;;;19.33;12.70;;;;;;;10.84;100.00;155249.38;5007467;28;20372;-73
2022/11/11 13:58:55;;;;;;;20.00;12.40;;;;;;;10.84;100.00;155248.09;5019053;28;20034;-74
2022/11/11 14:01:40;;;;;;;17.67;11.30;;;;;;;10.81;100.00;155241.69;5006470;28;20038;-74
2022/11/11 14:04:24;;;;;;;18.25;11.50;;;;;;;10.78;100.00;155234.00;5006253;28;20033;-74